sensor_id;sensor_type;location;lat;lon;timestamp;P1;durP1;ratioP1;P2;durP2;ratioP2
71383;SDS011;67558;52.166;5.004;2023-04-08T00:01:27;20.02;;;10.27;;
71383;SDS011;67558;52.166;5.004;2023-04-08T00:03:52;17.42;;;9.38;;
71383;SDS011;67558;52.166;5.004;2023-04-08T00:06:18;18.63;;;12.15;;
71383;SDS011;67558;52.166;5.004;2023-04-08T00:08:43;17.52;;;10.75;;
71383;SDS011;67558;52.166;5.004;2023-04-08T00:11:09;20.60;;;10.18;;
71383;SDS011;67558;52.166;5.004;2023-04-08T00:13:34;21.90;;;11.20;;
71383;SDS011;67558;52.166;5.004;2023-04-08T00:16:00;20.10;;;10.27;;
71383;SDS011;67558;52.166;5.004;2023-04-08T00:18:25;18.23;;;10.07;;
71383;SDS011;67558;52.166;5.004;2023-04-08T00:20:51;18.77;;;9.88;;
71383;SDS011;67558;52.166;5.004;2023-04-08T00:23:17;19.63;;;8.68;;
71383;SDS011;67558;52.166;5.004;2023-04-08T00:25:43;17.35;;;9.25;;
71383;SDS011;67558;52.166;5.004;2023-04-08T00:28:09;20.98;;;10.50;;
71383;SDS011;67558;52.166;5.004;2023-04-08T00:30:35;18.35;;;9.65;;
71383;SDS011;67558;52.166;5.004;2023-04-08T00:33:00;20.27;;;10.48;;
71383;SDS011;67558;52.166;5.004;2023-04-08T00:35:25;16.70;;;9.43;;
71383;SDS011;67558;52.166;5.004;2023-04-08T00:37:51;18.15;;;9.18;;
71383;SDS011;67558;52.166;5.004;2023-04-08T00:43:28;15.60;;;7.63;;
71383;SDS011;67558;52.166;5.004;2023-04-08T00:45:54;20.25;;;9.40;;
71383;SDS011;67558;52.166;5.004;2023-04-08T00:48:19;17.27;;;12.40;;
71383;SDS011;67558;52.166;5.004;2023-04-08T00:50:45;20.27;;;12.48;;
71383;SDS011;67558;52.166;5.004;2023-04-08T00:53:11;19.05;;;10.55;;
71383;SDS011;67558;52.166;5.004;2023-04-08T00:55:41;18.45;;;11.55;;
71383;SDS011;67558;52.166;5.004;2023-04-08T00:58:07;17.60;;;10.75;;
71383;SDS011;67558;52.166;5.004;2023-04-08T01:00:32;19.45;;;12.57;;
71383;SDS011;67558;52.166;5.004;2023-04-08T01:03:11;23.77;;;12.13;;
71383;SDS011;67558;52.166;5.004;2023-04-08T01:05:47;20.77;;;12.95;;
71383;SDS011;67558;52.166;5.004;2023-04-08T01:08:14;21.40;;;12.32;;
71383;SDS011;67558;52.166;5.004;2023-04-08T01:10:41;17.70;;;8.73;;
71383;SDS011;67558;52.166;5.004;2023-04-08T01:13:11;20.40;;;11.70;;
71383;SDS011;67558;52.166;5.004;2023-04-08T01:15:41;21.73;;;11.63;;
71383;SDS011;67558;52.166;5.004;2023-04-08T01:18:08;32.05;;;13.82;;
71383;SDS011;67558;52.166;5.004;2023-04-08T01:20:36;34.85;;;12.32;;
71383;SDS011;67558;52.166;5.004;2023-04-08T01:25:57;56.40;;;13.60;;
71383;SDS011;67558;52.166;5.004;2023-04-08T01:28:24;78.18;;;13.25;;
71383;SDS011;67558;52.166;5.004;2023-04-08T01:30:52;68.93;;;13.02;;
71383;SDS011;67558;52.166;5.004;2023-04-08T01:33:20;42.55;;;12.23;;
71383;SDS011;67558;52.166;5.004;2023-04-08T01:35:46;53.15;;;13.20;;
71383;SDS011;67558;52.166;5.004;2023-04-08T01:38:16;83.65;;;14.35;;
71383;SDS011;67558;52.166;5.004;2023-04-08T01:40:43;103.15;;;15.48;;
71383;SDS011;67558;52.166;5.004;2023-04-08T01:43:11;71.43;;;13.30;;
71383;SDS011;67558;52.166;5.004;2023-04-08T01:45:38;96.93;;;14.07;;
71383;SDS011;67558;52.166;5.004;2023-04-08T01:48:04;73.82;;;13.38;;
71383;SDS011;67558;52.166;5.004;2023-04-08T01:50:31;67.68;;;12.90;;
71383;SDS011;67558;52.166;5.004;2023-04-08T01:52:58;51.47;;;12.75;;
71383;SDS011;67558;52.166;5.004;2023-04-08T01:55:25;78.68;;;13.25;;
71383;SDS011;67558;52.166;5.004;2023-04-08T01:57:51;124.15;;;15.25;;
71383;SDS011;67558;52.166;5.004;2023-04-08T02:00:19;148.88;;;16.65;;
71383;SDS011;67558;52.166;5.004;2023-04-08T02:02:47;83.40;;;13.18;;
71383;SDS011;67558;52.166;5.004;2023-04-08T02:05:14;65.78;;;13.07;;
71383;SDS011;67558;52.166;5.004;2023-04-08T02:07:40;65.90;;;12.75;;
71383;SDS011;67558;52.166;5.004;2023-04-08T02:10:05;67.13;;;13.07;;
71383;SDS011;67558;52.166;5.004;2023-04-08T02:12:31;67.38;;;13.18;;
71383;SDS011;67558;52.166;5.004;2023-04-08T02:14:57;37.33;;;9.75;;
71383;SDS011;67558;52.166;5.004;2023-04-08T02:25:29;50.22;;;11.82;;
71383;SDS011;67558;52.166;5.004;2023-04-08T02:27:58;52.35;;;10.27;;
71383;SDS011;67558;52.166;5.004;2023-04-08T02:30:26;87.30;;;13.10;;
71383;SDS011;67558;52.166;5.004;2023-04-08T02:32:52;53.97;;;12.68;;
71383;SDS011;67558;52.166;5.004;2023-04-08T02:35:18;58.95;;;12.68;;
71383;SDS011;67558;52.166;5.004;2023-04-08T02:37:45;36.15;;;8.52;;
71383;SDS011;67558;52.166;5.004;2023-04-08T02:40:47;41.55;;;10.70;;
71383;SDS011;67558;52.166;5.004;2023-04-08T02:43:05;35.40;;;11.38;;
71383;SDS011;67558;52.166;5.004;2023-04-08T02:45:32;30.67;;;9.32;;
71383;SDS011;67558;52.166;5.004;2023-04-08T02:48:02;40.90;;;10.18;;
71383;SDS011;67558;52.166;5.004;2023-04-08T02:50:27;42.20;;;11.02;;
71383;SDS011;67558;52.166;5.004;2023-04-08T02:52:53;65.15;;;12.32;;
71383;SDS011;67558;52.166;5.004;2023-04-08T02:55:18;44.08;;;10.75;;
71383;SDS011;67558;52.166;5.004;2023-04-08T02:57:45;56.08;;;10.95;;
71383;SDS011;67558;52.166;5.004;2023-04-08T03:00:11;43.97;;;9.50;;
71383;SDS011;67558;52.166;5.004;2023-04-08T03:02:37;19.58;;;9.32;;
71383;SDS011;67558;52.166;5.004;2023-04-08T03:05:03;17.25;;;8.32;;
71383;SDS011;67558;52.166;5.004;2023-04-08T03:07:29;36.33;;;9.80;;
71383;SDS011;67558;52.166;5.004;2023-04-08T03:09:55;39.08;;;10.77;;
71383;SDS011;67558;52.166;5.004;2023-04-08T03:12:21;87.85;;;14.27;;
71383;SDS011;67558;52.166;5.004;2023-04-08T03:14:47;61.95;;;10.48;;
71383;SDS011;67558;52.166;5.004;2023-04-08T03:17:13;34.25;;;11.00;;
71383;SDS011;67558;52.166;5.004;2023-04-08T03:19:38;30.48;;;10.40;;
71383;SDS011;67558;52.166;5.004;2023-04-08T03:22:04;27.15;;;10.55;;
71383;SDS011;67558;52.166;5.004;2023-04-08T03:24:29;85.18;;;13.13;;
71383;SDS011;67558;52.166;5.004;2023-04-08T03:26:55;99.53;;;14.70;;
71383;SDS011;67558;52.166;5.004;2023-04-08T03:29:20;35.72;;;11.32;;
71383;SDS011;67558;52.166;5.004;2023-04-08T03:31:45;76.80;;;14.07;;
71383;SDS011;67558;52.166;5.004;2023-04-08T03:34:11;53.97;;;12.73;;
71383;SDS011;67558;52.166;5.004;2023-04-08T03:36:36;48.83;;;14.30;;
71383;SDS011;67558;52.166;5.004;2023-04-08T03:39:01;38.17;;;10.75;;
71383;SDS011;67558;52.166;5.004;2023-04-08T03:41:27;54.97;;;11.05;;
71383;SDS011;67558;52.166;5.004;2023-04-08T03:43:53;71.10;;;13.95;;
71383;SDS011;67558;52.166;5.004;2023-04-08T03:46:18;66.25;;;14.27;;
71383;SDS011;67558;52.166;5.004;2023-04-08T03:48:44;46.75;;;13.35;;
71383;SDS011;67558;52.166;5.004;2023-04-08T03:51:09;51.53;;;15.30;;
71383;SDS011;67558;52.166;5.004;2023-04-08T03:53:34;61.72;;;13.82;;
71383;SDS011;67558;52.166;5.004;2023-04-08T03:56:00;33.03;;;13.00;;
71383;SDS011;67558;52.166;5.004;2023-04-08T03:58:27;56.22;;;12.00;;
71383;SDS011;67558;52.166;5.004;2023-04-08T04:00:53;47.95;;;14.10;;
71383;SDS011;67558;52.166;5.004;2023-04-08T04:03:18;77.47;;;13.00;;
71383;SDS011;67558;52.166;5.004;2023-04-08T04:05:43;51.63;;;14.75;;
71383;SDS011;67558;52.166;5.004;2023-04-08T04:08:08;62.13;;;14.60;;
71383;SDS011;67558;52.166;5.004;2023-04-08T04:10:34;82.95;;;16.45;;
71383;SDS011;67558;52.166;5.004;2023-04-08T04:12:59;75.25;;;16.65;;
71383;SDS011;67558;52.166;5.004;2023-04-08T04:15:25;42.90;;;14.50;;
71383;SDS011;67558;52.166;5.004;2023-04-08T04:17:50;63.25;;;16.45;;
71383;SDS011;67558;52.166;5.004;2023-04-08T04:20:16;56.75;;;14.13;;
71383;SDS011;67558;52.166;5.004;2023-04-08T04:22:42;43.35;;;15.52;;
71383;SDS011;67558;52.166;5.004;2023-04-08T04:25:07;66.63;;;16.42;;
71383;SDS011;67558;52.166;5.004;2023-04-08T04:27:33;46.60;;;14.52;;
71383;SDS011;67558;52.166;5.004;2023-04-08T04:29:59;66.15;;;16.75;;
71383;SDS011;67558;52.166;5.004;2023-04-08T04:32:25;55.83;;;14.02;;
71383;SDS011;67558;52.166;5.004;2023-04-08T04:34:50;89.13;;;18.02;;
71383;SDS011;67558;52.166;5.004;2023-04-08T04:37:15;57.60;;;16.23;;
71383;SDS011;67558;52.166;5.004;2023-04-08T04:39:41;79.82;;;18.25;;
71383;SDS011;67558;52.166;5.004;2023-04-08T04:42:06;47.35;;;15.02;;
71383;SDS011;67558;52.166;5.004;2023-04-08T04:44:31;53.17;;;15.85;;
71383;SDS011;67558;52.166;5.004;2023-04-08T04:46:57;36.92;;;12.80;;
71383;SDS011;67558;52.166;5.004;2023-04-08T04:49:22;60.55;;;14.80;;
71383;SDS011;67558;52.166;5.004;2023-04-08T04:51:48;50.60;;;15.68;;
71383;SDS011;67558;52.166;5.004;2023-04-08T04:54:13;30.73;;;15.35;;
71383;SDS011;67558;52.166;5.004;2023-04-08T04:56:38;37.30;;;17.30;;
71383;SDS011;67558;52.166;5.004;2023-04-08T04:59:04;58.40;;;16.95;;
71383;SDS011;67558;52.166;5.004;2023-04-08T05:01:30;73.32;;;17.00;;
71383;SDS011;67558;52.166;5.004;2023-04-08T05:03:55;36.42;;;16.15;;
71383;SDS011;67558;52.166;5.004;2023-04-08T05:06:22;44.90;;;16.92;;
71383;SDS011;67558;52.166;5.004;2023-04-08T05:08:48;51.88;;;15.93;;
71383;SDS011;67558;52.166;5.004;2023-04-08T05:11:15;58.65;;;16.10;;
71383;SDS011;67558;52.166;5.004;2023-04-08T05:13:42;45.78;;;15.95;;
71383;SDS011;67558;52.166;5.004;2023-04-08T05:16:08;63.40;;;16.27;;
71383;SDS011;67558;52.166;5.004;2023-04-08T05:18:33;40.30;;;14.63;;
71383;SDS011;67558;52.166;5.004;2023-04-08T05:24:02;38.80;;;15.45;;
71383;SDS011;67558;52.166;5.004;2023-04-08T05:26:27;37.38;;;16.08;;
71383;SDS011;67558;52.166;5.004;2023-04-08T05:28:52;29.77;;;17.60;;
71383;SDS011;67558;52.166;5.004;2023-04-08T05:31:18;31.40;;;16.08;;
71383;SDS011;67558;52.166;5.004;2023-04-08T05:33:44;31.92;;;16.35;;
71383;SDS011;67558;52.166;5.004;2023-04-08T05:36:10;27.75;;;15.40;;
71383;SDS011;67558;52.166;5.004;2023-04-08T05:38:36;28.50;;;15.23;;
71383;SDS011;67558;52.166;5.004;2023-04-08T05:41:02;28.98;;;15.55;;
71383;SDS011;67558;52.166;5.004;2023-04-08T05:43:27;40.00;;;17.33;;
71383;SDS011;67558;52.166;5.004;2023-04-08T05:45:52;49.67;;;17.50;;
71383;SDS011;67558;52.166;5.004;2023-04-08T05:48:18;33.40;;;16.42;;
71383;SDS011;67558;52.166;5.004;2023-04-08T05:50:43;49.20;;;17.73;;
71383;SDS011;67558;52.166;5.004;2023-04-08T05:53:09;40.03;;;18.17;;
71383;SDS011;67558;52.166;5.004;2023-04-08T05:55:34;45.72;;;16.38;;
71383;SDS011;67558;52.166;5.004;2023-04-08T05:58:00;23.90;;;14.95;;
71383;SDS011;67558;52.166;5.004;2023-04-08T06:00:25;23.75;;;13.88;;
71383;SDS011;67558;52.166;5.004;2023-04-08T06:02:51;25.38;;;14.45;;
71383;SDS011;67558;52.166;5.004;2023-04-08T06:05:16;27.63;;;15.50;;
71383;SDS011;67558;52.166;5.004;2023-04-08T06:07:43;17.90;;;13.50;;
71383;SDS011;67558;52.166;5.004;2023-04-08T06:10:08;14.80;;;13.20;;
71383;SDS011;67558;52.166;5.004;2023-04-08T06:12:35;18.77;;;13.55;;
71383;SDS011;67558;52.166;5.004;2023-04-08T06:15:03;17.02;;;9.90;;
71383;SDS011;67558;52.166;5.004;2023-04-08T06:17:31;24.00;;;13.35;;
71383;SDS011;67558;52.166;5.004;2023-04-08T06:19:56;21.05;;;10.20;;
71383;SDS011;67558;52.166;5.004;2023-04-08T06:22:22;20.15;;;12.35;;
71383;SDS011;67558;52.166;5.004;2023-04-08T06:24:47;16.52;;;12.23;;
71383;SDS011;67558;52.166;5.004;2023-04-08T06:27:12;18.10;;;11.82;;
71383;SDS011;67558;52.166;5.004;2023-04-08T06:29:38;17.02;;;12.15;;
71383;SDS011;67558;52.166;5.004;2023-04-08T06:32:03;15.25;;;11.88;;
71383;SDS011;67558;52.166;5.004;2023-04-08T06:34:30;19.02;;;11.35;;
71383;SDS011;67558;52.166;5.004;2023-04-08T06:36:55;15.48;;;9.75;;
71383;SDS011;67558;52.166;5.004;2023-04-08T06:39:21;16.48;;;12.05;;
71383;SDS011;67558;52.166;5.004;2023-04-08T06:41:46;17.73;;;12.40;;
71383;SDS011;67558;52.166;5.004;2023-04-08T06:44:12;18.30;;;13.77;;
71383;SDS011;67558;52.166;5.004;2023-04-08T06:46:37;17.70;;;12.75;;
71383;SDS011;67558;52.166;5.004;2023-04-08T06:49:02;14.75;;;12.43;;
71383;SDS011;67558;52.166;5.004;2023-04-08T06:51:28;13.48;;;11.27;;
71383;SDS011;67558;52.166;5.004;2023-04-08T06:53:53;13.95;;;11.52;;
71383;SDS011;67558;52.166;5.004;2023-04-08T06:56:19;13.15;;;11.80;;
71383;SDS011;67558;52.166;5.004;2023-04-08T06:58:46;12.63;;;11.00;;
71383;SDS011;67558;52.166;5.004;2023-04-08T07:01:11;13.00;;;11.05;;
71383;SDS011;67558;52.166;5.004;2023-04-08T07:03:37;13.68;;;11.70;;
71383;SDS011;67558;52.166;5.004;2023-04-08T07:06:02;13.05;;;9.10;;
71383;SDS011;67558;52.166;5.004;2023-04-08T07:08:28;12.90;;;11.60;;
71383;SDS011;67558;52.166;5.004;2023-04-08T07:10:53;13.98;;;12.50;;
71383;SDS011;67558;52.166;5.004;2023-04-08T07:13:19;15.15;;;12.55;;
71383;SDS011;67558;52.166;5.004;2023-04-08T07:15:44;13.90;;;12.43;;
71383;SDS011;67558;52.166;5.004;2023-04-08T07:18:09;14.15;;;12.85;;
71383;SDS011;67558;52.166;5.004;2023-04-08T07:20:36;13.27;;;11.88;;
71383;SDS011;67558;52.166;5.004;2023-04-08T07:23:02;12.55;;;11.18;;
71383;SDS011;67558;52.166;5.004;2023-04-08T07:25:28;13.88;;;12.43;;
71383;SDS011;67558;52.166;5.004;2023-04-08T07:27:53;13.30;;;12.05;;
71383;SDS011;67558;52.166;5.004;2023-04-08T07:30:18;13.27;;;11.88;;
71383;SDS011;67558;52.166;5.004;2023-04-08T07:32:44;15.73;;;12.85;;
71383;SDS011;67558;52.166;5.004;2023-04-08T07:35:09;15.10;;;13.52;;
71383;SDS011;67558;52.166;5.004;2023-04-08T07:37:34;14.70;;;13.25;;
71383;SDS011;67558;52.166;5.004;2023-04-08T07:40:00;13.65;;;12.32;;
71383;SDS011;67558;52.166;5.004;2023-04-08T07:42:26;13.82;;;12.30;;
71383;SDS011;67558;52.166;5.004;2023-04-08T07:44:51;12.73;;;11.50;;
71383;SDS011;67558;52.166;5.004;2023-04-08T07:47:17;11.25;;;10.35;;
71383;SDS011;67558;52.166;5.004;2023-04-08T07:49:44;14.82;;;13.43;;
71383;SDS011;67558;52.166;5.004;2023-04-08T07:52:10;14.18;;;12.77;;
71383;SDS011;67558;52.166;5.004;2023-04-08T07:54:36;13.20;;;11.85;;
71383;SDS011;67558;52.166;5.004;2023-04-08T07:57:02;10.48;;;9.23;;
71383;SDS011;67558;52.166;5.004;2023-04-08T07:59:27;13.98;;;12.68;;
71383;SDS011;67558;52.166;5.004;2023-04-08T08:01:53;14.30;;;12.77;;
71383;SDS011;67558;52.166;5.004;2023-04-08T08:04:19;13.65;;;12.65;;
71383;SDS011;67558;52.166;5.004;2023-04-08T08:06:45;15.07;;;13.73;;
71383;SDS011;67558;52.166;5.004;2023-04-08T08:09:11;14.40;;;13.13;;
71383;SDS011;67558;52.166;5.004;2023-04-08T08:11:37;14.15;;;12.93;;
71383;SDS011;67558;52.166;5.004;2023-04-08T08:14:02;14.48;;;13.18;;
71383;SDS011;67558;52.166;5.004;2023-04-08T08:16:28;12.93;;;11.60;;
71383;SDS011;67558;52.166;5.004;2023-04-08T08:18:54;13.35;;;12.20;;
71383;SDS011;67558;52.166;5.004;2023-04-08T08:21:20;13.55;;;12.25;;
71383;SDS011;67558;52.166;5.004;2023-04-08T08:23:45;14.07;;;12.95;;
71383;SDS011;67558;52.166;5.004;2023-04-08T08:26:11;14.23;;;13.07;;
71383;SDS011;67558;52.166;5.004;2023-04-08T08:28:39;13.15;;;11.95;;
71383;SDS011;67558;52.166;5.004;2023-04-08T08:31:04;13.25;;;12.25;;
71383;SDS011;67558;52.166;5.004;2023-04-08T08:33:30;13.40;;;12.20;;
71383;SDS011;67558;52.166;5.004;2023-04-08T08:35:58;14.45;;;13.15;;
71383;SDS011;67558;52.166;5.004;2023-04-08T08:38:24;12.93;;;11.73;;
71383;SDS011;67558;52.166;5.004;2023-04-08T08:40:57;14.68;;;13.45;;
71383;SDS011;67558;52.166;5.004;2023-04-08T08:43:24;15.32;;;13.93;;
71383;SDS011;67558;52.166;5.004;2023-04-08T08:45:50;13.25;;;12.00;;
71383;SDS011;67558;52.166;5.004;2023-04-08T08:48:16;15.38;;;14.05;;
71383;SDS011;67558;52.166;5.004;2023-04-08T08:50:42;14.02;;;12.75;;
71383;SDS011;67558;52.166;5.004;2023-04-08T08:53:07;13.90;;;12.48;;
71383;SDS011;67558;52.166;5.004;2023-04-08T08:55:33;13.60;;;12.70;;
71383;SDS011;67558;52.166;5.004;2023-04-08T08:57:59;13.75;;;12.48;;
71383;SDS011;67558;52.166;5.004;2023-04-08T09:00:32;13.38;;;12.25;;
71383;SDS011;67558;52.166;5.004;2023-04-08T09:03:16;11.75;;;9.48;;
71383;SDS011;67558;52.166;5.004;2023-04-08T09:05:50;13.70;;;12.45;;
71383;SDS011;67558;52.166;5.004;2023-04-08T09:08:35;14.00;;;12.60;;
71383;SDS011;67558;52.166;5.004;2023-04-08T09:11:19;12.18;;;11.00;;
71383;SDS011;67558;52.166;5.004;2023-04-08T09:13:46;14.00;;;12.85;;
71383;SDS011;67558;52.166;5.004;2023-04-08T09:16:13;13.02;;;12.00;;
71383;SDS011;67558;52.166;5.004;2023-04-08T09:18:42;14.07;;;12.95;;
71383;SDS011;67558;52.166;5.004;2023-04-08T09:21:12;12.45;;;11.25;;
71383;SDS011;67558;52.166;5.004;2023-04-08T09:23:42;15.45;;;14.23;;
71383;SDS011;67558;52.166;5.004;2023-04-08T09:26:10;13.93;;;11.27;;
71383;SDS011;67558;52.166;5.004;2023-04-08T09:28:38;12.48;;;8.60;;
71383;SDS011;67558;52.166;5.004;2023-04-08T09:31:21;15.88;;;14.38;;
71383;SDS011;67558;52.166;5.004;2023-04-08T09:33:50;13.48;;;12.25;;
71383;SDS011;67558;52.166;5.004;2023-04-08T09:36:18;13.82;;;12.65;;
71383;SDS011;67558;52.166;5.004;2023-04-08T09:38:44;11.52;;;10.45;;
71383;SDS011;67558;52.166;5.004;2023-04-08T09:41:12;12.75;;;11.70;;
71383;SDS011;67558;52.166;5.004;2023-04-08T09:43:43;13.55;;;12.35;;
71383;SDS011;67558;52.166;5.004;2023-04-08T09:46:18;14.88;;;12.23;;
71383;SDS011;67558;52.166;5.004;2023-04-08T09:51:31;12.70;;;11.70;;
71383;SDS011;67558;52.166;5.004;2023-04-08T09:54:03;13.00;;;11.90;;
71383;SDS011;67558;52.166;5.004;2023-04-08T09:56:41;13.43;;;12.20;;
71383;SDS011;67558;52.166;5.004;2023-04-08T09:59:15;14.73;;;12.10;;
71383;SDS011;67558;52.166;5.004;2023-04-08T10:01:45;12.48;;;11.48;;
71383;SDS011;67558;52.166;5.004;2023-04-08T10:04:17;13.85;;;12.68;;
71383;SDS011;67558;52.166;5.004;2023-04-08T10:07:07;13.35;;;12.07;;
71383;SDS011;67558;52.166;5.004;2023-04-08T10:09:33;12.77;;;11.60;;
71383;SDS011;67558;52.166;5.004;2023-04-08T10:11:59;12.23;;;11.10;;
71383;SDS011;67558;52.166;5.004;2023-04-08T10:14:25;9.27;;;7.95;;
71383;SDS011;67558;52.166;5.004;2023-04-08T10:17:34;12.25;;;11.15;;
71383;SDS011;67558;52.166;5.004;2023-04-08T10:20:00;14.35;;;13.35;;
71383;SDS011;67558;52.166;5.004;2023-04-08T10:22:45;12.10;;;11.10;;
71383;SDS011;67558;52.166;5.004;2023-04-08T10:25:32;12.52;;;9.45;;
71383;SDS011;67558;52.166;5.004;2023-04-08T10:27:59;9.88;;;8.98;;
71383;SDS011;67558;52.166;5.004;2023-04-08T10:32:56;13.57;;;12.38;;
71383;SDS011;67558;52.166;5.004;2023-04-08T10:35:28;7.95;;;7.15;;
71383;SDS011;67558;52.166;5.004;2023-04-08T10:37:55;9.82;;;8.57;;
71383;SDS011;67558;52.166;5.004;2023-04-08T10:40:21;13.07;;;11.95;;
71383;SDS011;67558;52.166;5.004;2023-04-08T10:42:53;12.10;;;10.60;;
71383;SDS011;67558;52.166;5.004;2023-04-08T10:45:19;11.82;;;10.85;;
71383;SDS011;67558;52.166;5.004;2023-04-08T10:47:45;13.57;;;12.52;;
71383;SDS011;67558;52.166;5.004;2023-04-08T10:50:11;13.18;;;12.07;;
71383;SDS011;67558;52.166;5.004;2023-04-08T10:55:13;14.60;;;13.02;;
71383;SDS011;67558;52.166;5.004;2023-04-08T10:57:39;13.88;;;12.68;;
71383;SDS011;67558;52.166;5.004;2023-04-08T11:00:09;12.45;;;11.55;;
71383;SDS011;67558;52.166;5.004;2023-04-08T11:02:36;13.40;;;12.30;;
71383;SDS011;67558;52.166;5.004;2023-04-08T11:05:02;13.02;;;11.85;;
71383;SDS011;67558;52.166;5.004;2023-04-08T11:07:29;12.80;;;11.73;;
71383;SDS011;67558;52.166;5.004;2023-04-08T11:09:55;12.57;;;11.57;;
71383;SDS011;67558;52.166;5.004;2023-04-08T11:12:21;13.02;;;12.13;;
71383;SDS011;67558;52.166;5.004;2023-04-08T11:14:47;11.70;;;10.48;;
71383;SDS011;67558;52.166;5.004;2023-04-08T11:17:17;13.15;;;11.88;;
71383;SDS011;67558;52.166;5.004;2023-04-08T11:19:43;14.65;;;13.38;;
71383;SDS011;67558;52.166;5.004;2023-04-08T11:22:11;12.07;;;8.18;;
71383;SDS011;67558;52.166;5.004;2023-04-08T11:24:37;11.80;;;10.77;;
71383;SDS011;67558;52.166;5.004;2023-04-08T11:27:03;13.50;;;12.23;;
71383;SDS011;67558;52.166;5.004;2023-04-08T11:29:32;13.18;;;12.02;;
71383;SDS011;67558;52.166;5.004;2023-04-08T11:32:00;12.50;;;11.45;;
71383;SDS011;67558;52.166;5.004;2023-04-08T11:34:26;13.80;;;12.50;;
71383;SDS011;67558;52.166;5.004;2023-04-08T11:36:52;13.27;;;12.25;;
71383;SDS011;67558;52.166;5.004;2023-04-08T11:39:21;12.70;;;11.65;;
71383;SDS011;67558;52.166;5.004;2023-04-08T11:41:47;13.43;;;12.40;;
71383;SDS011;67558;52.166;5.004;2023-04-08T11:44:13;12.80;;;11.73;;
71383;SDS011;67558;52.166;5.004;2023-04-08T11:46:39;13.60;;;12.60;;
71383;SDS011;67558;52.166;5.004;2023-04-08T11:49:07;14.65;;;13.45;;
71383;SDS011;67558;52.166;5.004;2023-04-08T11:51:37;11.77;;;9.93;;
71383;SDS011;67558;52.166;5.004;2023-04-08T11:54:26;13.77;;;12.45;;
71383;SDS011;67558;52.166;5.004;2023-04-08T11:56:53;13.10;;;12.02;;
71383;SDS011;67558;52.166;5.004;2023-04-08T11:59:19;12.73;;;9.80;;
71383;SDS011;67558;52.166;5.004;2023-04-08T12:01:45;13.98;;;12.75;;
71383;SDS011;67558;52.166;5.004;2023-04-08T12:04:11;18.25;;;16.85;;
71383;SDS011;67558;52.166;5.004;2023-04-08T12:06:37;14.75;;;13.65;;
71383;SDS011;67558;52.166;5.004;2023-04-08T12:09:04;15.52;;;14.18;;
71383;SDS011;67558;52.166;5.004;2023-04-08T12:11:32;13.63;;;12.63;;
71383;SDS011;67558;52.166;5.004;2023-04-08T12:13:58;15.35;;;13.93;;
71383;SDS011;67558;52.166;5.004;2023-04-08T12:16:24;15.93;;;14.68;;
71383;SDS011;67558;52.166;5.004;2023-04-08T12:18:50;15.75;;;14.23;;
71383;SDS011;67558;52.166;5.004;2023-04-08T12:21:17;16.52;;;15.18;;
71383;SDS011;67558;52.166;5.004;2023-04-08T12:23:43;15.88;;;14.57;;
71383;SDS011;67558;52.166;5.004;2023-04-08T12:26:09;14.32;;;12.65;;
71383;SDS011;67558;52.166;5.004;2023-04-08T12:28:34;15.63;;;14.13;;
71383;SDS011;67558;52.166;5.004;2023-04-08T12:31:00;15.35;;;13.85;;
71383;SDS011;67558;52.166;5.004;2023-04-08T12:33:26;11.68;;;10.48;;
71383;SDS011;67558;52.166;5.004;2023-04-08T12:35:52;16.15;;;14.65;;
71383;SDS011;67558;52.166;5.004;2023-04-08T12:38:18;14.27;;;13.13;;
71383;SDS011;67558;52.166;5.004;2023-04-08T12:40:44;15.05;;;13.68;;
71383;SDS011;67558;52.166;5.004;2023-04-08T12:43:10;12.77;;;10.48;;
71383;SDS011;67558;52.166;5.004;2023-04-08T12:45:36;17.27;;;14.30;;
71383;SDS011;67558;52.166;5.004;2023-04-08T12:48:01;15.25;;;13.75;;
71383;SDS011;67558;52.166;5.004;2023-04-08T12:50:27;14.07;;;12.68;;
71383;SDS011;67558;52.166;5.004;2023-04-08T12:52:52;14.60;;;13.10;;
71383;SDS011;67558;52.166;5.004;2023-04-08T12:55:18;15.25;;;13.82;;
71383;SDS011;67558;52.166;5.004;2023-04-08T12:57:43;15.68;;;14.18;;
71383;SDS011;67558;52.166;5.004;2023-04-08T13:00:08;14.57;;;13.38;;
71383;SDS011;67558;52.166;5.004;2023-04-08T13:02:35;15.32;;;13.98;;
71383;SDS011;67558;52.166;5.004;2023-04-08T13:05:01;17.00;;;15.38;;
71383;SDS011;67558;52.166;5.004;2023-04-08T13:07:29;16.45;;;15.13;;
71383;SDS011;67558;52.166;5.004;2023-04-08T13:09:55;17.75;;;16.23;;
71383;SDS011;67558;52.166;5.004;2023-04-08T13:12:20;17.50;;;16.08;;
71383;SDS011;67558;52.166;5.004;2023-04-08T13:14:46;16.05;;;14.77;;
71383;SDS011;67558;52.166;5.004;2023-04-08T13:17:11;13.82;;;10.85;;
71383;SDS011;67558;52.166;5.004;2023-04-08T13:19:37;15.23;;;13.88;;
71383;SDS011;67558;52.166;5.004;2023-04-08T13:22:03;16.05;;;14.65;;
71383;SDS011;67558;52.166;5.004;2023-04-08T13:24:28;15.55;;;13.95;;
71383;SDS011;67558;52.166;5.004;2023-04-08T13:26:53;17.08;;;15.50;;
71383;SDS011;67558;52.166;5.004;2023-04-08T13:29:19;17.35;;;15.85;;
71383;SDS011;67558;52.166;5.004;2023-04-08T13:31:44;16.30;;;14.95;;
71383;SDS011;67558;52.166;5.004;2023-04-08T13:34:09;16.80;;;15.43;;
71383;SDS011;67558;52.166;5.004;2023-04-08T13:36:35;17.40;;;15.70;;
71383;SDS011;67558;52.166;5.004;2023-04-08T13:39:01;17.15;;;15.52;;
71383;SDS011;67558;52.166;5.004;2023-04-08T13:41:26;15.60;;;14.05;;
71383;SDS011;67558;52.166;5.004;2023-04-08T13:43:52;16.90;;;15.45;;
71383;SDS011;67558;52.166;5.004;2023-04-08T13:46:17;15.80;;;14.30;;
71383;SDS011;67558;52.166;5.004;2023-04-08T13:48:43;15.13;;;13.70;;
71383;SDS011;67558;52.166;5.004;2023-04-08T13:51:09;15.45;;;14.20;;
71383;SDS011;67558;52.166;5.004;2023-04-08T13:53:34;15.77;;;14.35;;
71383;SDS011;67558;52.166;5.004;2023-04-08T13:55:59;15.93;;;14.50;;
71383;SDS011;67558;52.166;5.004;2023-04-08T13:58:25;14.00;;;12.82;;
71383;SDS011;67558;52.166;5.004;2023-04-08T14:00:50;13.77;;;12.70;;
71383;SDS011;67558;52.166;5.004;2023-04-08T14:03:16;15.07;;;13.75;;
71383;SDS011;67558;52.166;5.004;2023-04-08T14:05:41;14.20;;;13.02;;
71383;SDS011;67558;52.166;5.004;2023-04-08T14:08:06;13.60;;;12.40;;
71383;SDS011;67558;52.166;5.004;2023-04-08T14:10:32;15.00;;;13.73;;
71383;SDS011;67558;52.166;5.004;2023-04-08T14:12:58;16.10;;;14.73;;
71383;SDS011;67558;52.166;5.004;2023-04-08T14:15:23;14.00;;;12.82;;
71383;SDS011;67558;52.166;5.004;2023-04-08T14:17:48;14.10;;;12.95;;
71383;SDS011;67558;52.166;5.004;2023-04-08T14:20:14;15.02;;;13.73;;
71383;SDS011;67558;52.166;5.004;2023-04-08T14:22:39;12.25;;;11.15;;
71383;SDS011;67558;52.166;5.004;2023-04-08T14:25:06;13.93;;;12.70;;
71383;SDS011;67558;52.166;5.004;2023-04-08T14:27:33;15.38;;;14.18;;
71383;SDS011;67558;52.166;5.004;2023-04-08T14:30:00;14.05;;;12.77;;
71383;SDS011;67558;52.166;5.004;2023-04-08T14:32:26;14.40;;;13.07;;
71383;SDS011;67558;52.166;5.004;2023-04-08T14:34:52;13.23;;;11.82;;
71383;SDS011;67558;52.166;5.004;2023-04-08T14:37:17;14.57;;;13.27;;
71383;SDS011;67558;52.166;5.004;2023-04-08T14:39:43;15.80;;;14.38;;
71383;SDS011;67558;52.166;5.004;2023-04-08T14:42:08;11.20;;;10.00;;
71383;SDS011;67558;52.166;5.004;2023-04-08T14:44:34;15.40;;;14.00;;
71383;SDS011;67558;52.166;5.004;2023-04-08T14:46:59;16.05;;;14.55;;